sensor_id;sensor_type;location;lat;lon;timestamp;temperature;humidity
50162;DHT22;36061;48.116;11.612;2022-10-28T00:00:25;11.40;99.90
50162;DHT22;36061;48.116;11.612;2022-10-28T00:02:51;11.40;99.90
50162;DHT22;36061;48.116;11.612;2022-10-28T00:05:17;11.40;99.90
50162;DHT22;36061;48.116;11.612;2022-10-28T00:07:42;11.40;99.90
50162;DHT22;36061;48.116;11.612;2022-10-28T00:10:08;11.40;99.90
50162;DHT22;36061;48.116;11.612;2022-10-28T00:12:35;11.40;99.90
50162;DHT22;36061;48.116;11.612;2022-10-28T00:15:01;11.40;99.90
50162;DHT22;36061;48.116;11.612;2022-10-28T00:17:27;11.40;99.90
50162;DHT22;36061;48.116;11.612;2022-10-28T00:19:52;11.30;99.90
50162;DHT22;36061;48.116;11.612;2022-10-28T00:22:18;11.30;99.90
50162;DHT22;36061;48.116;11.612;2022-10-28T00:24:44;11.30;99.90
50162;DHT22;36061;48.116;11.612;2022-10-28T00:27:10;11.30;99.90
50162;DHT22;36061;48.116;11.612;2022-10-28T00:29:35;11.20;99.90
50162;DHT22;36061;48.116;11.612;2022-10-28T00:32:01;11.20;99.90
50162;DHT22;36061;48.116;11.612;2022-10-28T00:34:27;11.20;99.90
50162;DHT22;36061;48.116;11.612;2022-10-28T00:36:53;11.20;99.90
50162;DHT22;36061;48.116;11.612;2022-10-28T00:39:21;11.20;99.90
50162;DHT22;36061;48.116;11.612;2022-10-28T00:41:58;11.20;99.90
50162;DHT22;36061;48.116;11.612;2022-10-28T00:44:56;11.10;99.90
50162;DHT22;36061;48.116;11.612;2022-10-28T00:47:36;11.10;99.90
50162;DHT22;36061;48.116;11.612;2022-10-28T00:52:39;11.10;99.90
50162;DHT22;36061;48.116;11.612;2022-10-28T00:55:06;11.10;99.90
50162;DHT22;36061;48.116;11.612;2022-10-28T00:57:36;11.10;99.90
50162;DHT22;36061;48.116;11.612;2022-10-28T01:00:05;11.00;99.90
50162;DHT22;36061;48.116;11.612;2022-10-28T01:02:34;11.00;99.90
50162;DHT22;36061;48.116;11.612;2022-10-28T01:05:02;11.00;99.90
50162;DHT22;36061;48.116;11.612;2022-10-28T01:07:29;11.00;99.90
50162;DHT22;36061;48.116;11.612;2022-10-28T01:09:55;11.00;99.90
50162;DHT22;36061;48.116;11.612;2022-10-28T01:12:25;11.00;99.90
50162;DHT22;36061;48.116;11.612;2022-10-28T01:18:24;11.00;99.90
50162;DHT22;36061;48.116;11.612;2022-10-28T01:32:08;11.00;99.90
50162;DHT22;36061;48.116;11.612;2022-10-28T01:39:46;11.00;99.90
50162;DHT22;36061;48.116;11.612;2022-10-28T01:42:36;11.00;99.90
50162;DHT22;36061;48.116;11.612;2022-10-28T01:45:14;10.90;99.90
50162;DHT22;36061;48.116;11.612;2022-10-28T01:47:49;10.90;99.90
50162;DHT22;36061;48.116;11.612;2022-10-28T01:50:45;10.90;99.90
50162;DHT22;36061;48.116;11.612;2022-10-28T01:53:18;10.90;99.90
50162;DHT22;36061;48.116;11.612;2022-10-28T01:55:47;10.90;99.90
50162;DHT22;36061;48.116;11.612;2022-10-28T01:58:17;10.90;99.90
50162;DHT22;36061;48.116;11.612;2022-10-28T02:00:45;10.90;99.90
50162;DHT22;36061;48.116;11.612;2022-10-28T02:03:12;10.90;99.90
50162;DHT22;36061;48.116;11.612;2022-10-28T02:05:49;10.90;99.90
50162;DHT22;36061;48.116;11.612;2022-10-28T02:19:23;10.90;99.90
50162;DHT22;36061;48.116;11.612;2022-10-28T02:25:01;10.90;99.90
50162;DHT22;36061;48.116;11.612;2022-10-28T02:30:16;10.80;99.90
50162;DHT22;36061;48.116;11.612;2022-10-28T02:32:56;10.80;99.90
50162;DHT22;36061;48.116;11.612;2022-10-28T02:35:42;10.80;99.90
50162;DHT22;36061;48.116;11.612;2022-10-28T02:38:36;10.80;99.90
50162;DHT22;36061;48.116;11.612;2022-10-28T02:41:04;10.80;99.90
50162;DHT22;36061;48.116;11.612;2022-10-28T02:43:33;10.70;99.90
50162;DHT22;36061;48.116;11.612;2022-10-28T02:46:03;10.70;99.90
50162;DHT22;36061;48.116;11.612;2022-10-28T02:48:48;10.70;99.90
50162;DHT22;36061;48.116;11.612;2022-10-28T02:51:21;10.70;99.90
50162;DHT22;36061;48.116;11.612;2022-10-28T02:54:16;10.70;99.90
50162;DHT22;36061;48.116;11.612;2022-10-28T02:56:57;10.70;99.90
50162;DHT22;36061;48.116;11.612;2022-10-28T02:59:24;10.70;99.90
50162;DHT22;36061;48.116;11.612;2022-10-28T03:01:50;10.70;99.90
50162;DHT22;36061;48.116;11.612;2022-10-28T03:04:16;10.70;99.90
50162;DHT22;36061;48.116;11.612;2022-10-28T03:06:42;10.80;99.90
50162;DHT22;36061;48.116;11.612;2022-10-28T03:09:08;10.60;99.90
50162;DHT22;36061;48.116;11.612;2022-10-28T03:11:33;10.60;99.90
50162;DHT22;36061;48.116;11.612;2022-10-28T03:13:59;10.60;99.90
50162;DHT22;36061;48.116;11.612;2022-10-28T03:16:25;10.60;99.90
50162;DHT22;36061;48.116;11.612;2022-10-28T03:18:52;10.60;99.90
50162;DHT22;36061;48.116;11.612;2022-10-28T03:21:18;10.60;99.90
50162;DHT22;36061;48.116;11.612;2022-10-28T03:23:44;10.60;99.90
50162;DHT22;36061;48.116;11.612;2022-10-28T03:26:09;10.60;99.90
50162;DHT22;36061;48.116;11.612;2022-10-28T03:28:35;10.60;99.90
50162;DHT22;36061;48.116;11.612;2022-10-28T03:31:01;10.60;99.90
50162;DHT22;36061;48.116;11.612;2022-10-28T03:33:27;10.60;99.90
50162;DHT22;36061;48.116;11.612;2022-10-28T03:35:53;10.60;99.90
50162;DHT22;36061;48.116;11.612;2022-10-28T03:38:18;10.60;99.90
50162;DHT22;36061;48.116;11.612;2022-10-28T03:40:47;10.60;99.90
50162;DHT22;36061;48.116;11.612;2022-10-28T03:43:13;10.70;99.90
50162;DHT22;36061;48.116;11.612;2022-10-28T03:45:39;10.70;99.90
50162;DHT22;36061;48.116;11.612;2022-10-28T03:48:05;10.60;99.90
50162;DHT22;36061;48.116;11.612;2022-10-28T03:50:31;10.60;99.90
50162;DHT22;36061;48.116;11.612;2022-10-28T03:52:57;10.60;99.90
50162;DHT22;36061;48.116;11.612;2022-10-28T03:55:23;10.60;99.90
50162;DHT22;36061;48.116;11.612;2022-10-28T03:57:50;10.60;99.90
50162;DHT22;36061;48.116;11.612;2022-10-28T04:00:16;10.60;99.90
50162;DHT22;36061;48.116;11.612;2022-10-28T04:02:47;10.60;99.90
50162;DHT22;36061;48.116;11.612;2022-10-28T04:05:13;10.60;99.90
50162;DHT22;36061;48.116;11.612;2022-10-28T04:07:39;10.60;99.90
50162;DHT22;36061;48.116;11.612;2022-10-28T04:10:05;10.60;99.90
50162;DHT22;36061;48.116;11.612;2022-10-28T04:12:31;10.60;99.90
50162;DHT22;36061;48.116;11.612;2022-10-28T04:14:57;10.60;99.90
50162;DHT22;36061;48.116;11.612;2022-10-28T04:17:22;10.60;99.90
50162;DHT22;36061;48.116;11.612;2022-10-28T04:19:48;10.50;99.90
50162;DHT22;36061;48.116;11.612;2022-10-28T04:22:14;10.60;99.90
50162;DHT22;36061;48.116;11.612;2022-10-28T04:24:40;10.60;99.90
50162;DHT22;36061;48.116;11.612;2022-10-28T04:27:06;10.50;99.90
50162;DHT22;36061;48.116;11.612;2022-10-28T04:29:31;10.50;99.90
50162;DHT22;36061;48.116;11.612;2022-10-28T04:31:57;10.50;99.90
50162;DHT22;36061;48.116;11.612;2022-10-28T04:34:24;10.50;99.90
50162;DHT22;36061;48.116;11.612;2022-10-28T04:36:53;10.50;99.90
50162;DHT22;36061;48.116;11.612;2022-10-28T04:39:18;10.50;99.90
50162;DHT22;36061;48.116;11.612;2022-10-28T04:41:44;10.50;99.90
50162;DHT22;36061;48.116;11.612;2022-10-28T04:44:10;10.50;99.90
50162;DHT22;36061;48.116;11.612;2022-10-28T04:46:36;10.50;99.90
50162;DHT22;36061;48.116;11.612;2022-10-28T04:49:02;10.50;99.90
50162;DHT22;36061;48.116;11.612;2022-10-28T04:51:28;10.40;99.90
50162;DHT22;36061;48.116;11.612;2022-10-28T04:53:54;10.40;99.90
50162;DHT22;36061;48.116;11.612;2022-10-28T04:56:19;10.40;99.90
50162;DHT22;36061;48.116;11.612;2022-10-28T04:58:46;10.40;99.90
50162;DHT22;36061;48.116;11.612;2022-10-28T05:01:12;10.40;99.90
50162;DHT22;36061;48.116;11.612;2022-10-28T05:03:37;10.40;99.90
50162;DHT22;36061;48.116;11.612;2022-10-28T05:06:03;10.40;99.90
50162;DHT22;36061;48.116;11.612;2022-10-28T05:08:29;10.40;99.90
50162;DHT22;36061;48.116;11.612;2022-10-28T05:10:55;10.40;99.90
50162;DHT22;36061;48.116;11.612;2022-10-28T05:13:20;10.40;99.90
50162;DHT22;36061;48.116;11.612;2022-10-28T05:15:47;10.40;99.90
50162;DHT22;36061;48.116;11.612;2022-10-28T05:18:13;10.40;99.90
50162;DHT22;36061;48.116;11.612;2022-10-28T05:20:39;10.40;99.90
50162;DHT22;36061;48.116;11.612;2022-10-28T05:23:05;10.40;99.90
50162;DHT22;36061;48.116;11.612;2022-10-28T05:25:31;10.40;99.90
50162;DHT22;36061;48.116;11.612;2022-10-28T05:27:57;10.40;99.90
50162;DHT22;36061;48.116;11.612;2022-10-28T05:30:25;10.40;99.90
50162;DHT22;36061;48.116;11.612;2022-10-28T05:32:51;10.40;99.90
50162;DHT22;36061;48.116;11.612;2022-10-28T05:35:16;10.40;99.90
50162;DHT22;36061;48.116;11.612;2022-10-28T05:37:43;10.40;99.90
50162;DHT22;36061;48.116;11.612;2022-10-28T05:40:09;10.40;99.90
50162;DHT22;36061;48.116;11.612;2022-10-28T05:42:41;10.40;99.90
50162;DHT22;36061;48.116;11.612;2022-10-28T05:45:08;10.40;99.90
50162;DHT22;36061;48.116;11.612;2022-10-28T05:47:34;10.40;99.90
50162;DHT22;36061;48.116;11.612;2022-10-28T05:50:00;10.40;99.90
50162;DHT22;36061;48.116;11.612;2022-10-28T05:52:26;10.40;99.90
50162;DHT22;36061;48.116;11.612;2022-10-28T05:54:52;10.50;99.90
50162;DHT22;36061;48.116;11.612;2022-10-28T05:57:17;10.50;99.90
50162;DHT22;36061;48.116;11.612;2022-10-28T05:59:43;10.50;99.90
50162;DHT22;36061;48.116;11.612;2022-10-28T06:02:13;10.50;99.90
50162;DHT22;36061;48.116;11.612;2022-10-28T06:04:40;10.50;99.90
50162;DHT22;36061;48.116;11.612;2022-10-28T06:07:06;10.60;99.90
50162;DHT22;36061;48.116;11.612;2022-10-28T06:09:32;10.60;99.90
50162;DHT22;36061;48.116;11.612;2022-10-28T06:11:58;10.60;99.90
50162;DHT22;36061;48.116;11.612;2022-10-28T06:14:24;10.70;99.90
50162;DHT22;36061;48.116;11.612;2022-10-28T06:16:50;10.70;99.90
50162;DHT22;36061;48.116;11.612;2022-10-28T06:19:16;10.80;99.90
50162;DHT22;36061;48.116;11.612;2022-10-28T06:21:42;10.90;99.90
50162;DHT22;36061;48.116;11.612;2022-10-28T06:24:08;10.90;99.90
50162;DHT22;36061;48.116;11.612;2022-10-28T06:26:34;11.00;99.90
50162;DHT22;36061;48.116;11.612;2022-10-28T06:29:00;11.10;99.90
50162;DHT22;36061;48.116;11.612;2022-10-28T06:31:25;11.10;99.90
50162;DHT22;36061;48.116;11.612;2022-10-28T06:33:51;11.20;99.90
50162;DHT22;36061;48.116;11.612;2022-10-28T06:36:17;11.20;99.90
50162;DHT22;36061;48.116;11.612;2022-10-28T06:38:43;11.30;99.90
50162;DHT22;36061;48.116;11.612;2022-10-28T06:41:08;11.30;99.90
50162;DHT22;36061;48.116;11.612;2022-10-28T06:43:34;11.30;99.90
50162;DHT22;36061;48.116;11.612;2022-10-28T06:46:01;11.40;99.90
50162;DHT22;36061;48.116;11.612;2022-10-28T06:48:27;11.50;99.90
50162;DHT22;36061;48.116;11.612;2022-10-28T06:50:56;11.50;99.90
50162;DHT22;36061;48.116;11.612;2022-10-28T06:53:23;11.50;99.90
50162;DHT22;36061;48.116;11.612;2022-10-28T06:55:56;11.60;99.90
50162;DHT22;36061;48.116;11.612;2022-10-28T06:58:23;11.70;99.90
50162;DHT22;36061;48.116;11.612;2022-10-28T07:00:50;11.70;99.90
50162;DHT22;36061;48.116;11.612;2022-10-28T07:03:16;11.70;99.90
50162;DHT22;36061;48.116;11.612;2022-10-28T07:05:44;11.80;99.90
50162;DHT22;36061;48.116;11.612;2022-10-28T07:08:11;11.80;99.90
50162;DHT22;36061;48.116;11.612;2022-10-28T07:10:40;11.90;99.90
50162;DHT22;36061;48.116;11.612;2022-10-28T07:13:06;11.90;99.90
50162;DHT22;36061;48.116;11.612;2022-10-28T07:15:32;12.00;99.90
50162;DHT22;36061;48.116;11.612;2022-10-28T07:17:58;12.10;99.90
50162;DHT22;36061;48.116;11.612;2022-10-28T07:20:25;12.20;99.90
50162;DHT22;36061;48.116;11.612;2022-10-28T07:22:55;12.20;99.90
50162;DHT22;36061;48.116;11.612;2022-10-28T07:25:21;12.30;99.90
50162;DHT22;36061;48.116;11.612;2022-10-28T07:27:47;12.40;99.90
50162;DHT22;36061;48.116;11.612;2022-10-28T07:30:13;12.40;99.90
50162;DHT22;36061;48.116;11.612;2022-10-28T07:32:39;12.50;99.90
50162;DHT22;36061;48.116;11.612;2022-10-28T07:35:05;12.60;99.90
50162;DHT22;36061;48.116;11.612;2022-10-28T07:37:30;12.70;99.90
50162;DHT22;36061;48.116;11.612;2022-10-28T07:39:56;12.70;99.90
50162;DHT22;36061;48.116;11.612;2022-10-28T07:42:22;12.80;99.90
50162;DHT22;36061;48.116;11.612;2022-10-28T07:44:48;12.90;99.90
50162;DHT22;36061;48.116;11.612;2022-10-28T07:47:13;13.00;99.90
50162;DHT22;36061;48.116;11.612;2022-10-28T07:49:40;13.10;99.90
50162;DHT22;36061;48.116;11.612;2022-10-28T07:52:06;13.30;99.90
50162;DHT22;36061;48.116;11.612;2022-10-28T07:54:31;13.40;99.90
50162;DHT22;36061;48.116;11.612;2022-10-28T07:56:57;13.50;99.90
50162;DHT22;36061;48.116;11.612;2022-10-28T07:59:23;13.70;99.90
50162;DHT22;36061;48.116;11.612;2022-10-28T08:01:49;13.80;99.90
50162;DHT22;36061;48.116;11.612;2022-10-28T08:04:15;14.00;99.90
50162;DHT22;36061;48.116;11.612;2022-10-28T08:06:41;14.20;99.90
50162;DHT22;36061;48.116;11.612;2022-10-28T08:09:08;14.30;99.90
50162;DHT22;36061;48.116;11.612;2022-10-28T08:11:34;14.50;99.90
50162;DHT22;36061;48.116;11.612;2022-10-28T08:14:01;14.70;99.90
50162;DHT22;36061;48.116;11.612;2022-10-28T08:16:27;14.80;99.90
50162;DHT22;36061;48.116;11.612;2022-10-28T08:18:54;14.90;99.90
50162;DHT22;36061;48.116;11.612;2022-10-28T08:21:21;15.10;99.90
50162;DHT22;36061;48.116;11.612;2022-10-28T08:23:48;15.30;99.90
50162;DHT22;36061;48.116;11.612;2022-10-28T08:26:15;15.40;99.90
50162;DHT22;36061;48.116;11.612;2022-10-28T08:28:41;15.60;99.90
50162;DHT22;36061;48.116;11.612;2022-10-28T08:31:07;15.70;99.90
50162;DHT22;36061;48.116;11.612;2022-10-28T08:33:43;15.90;99.90
50162;DHT22;36061;48.116;11.612;2022-10-28T08:36:12;16.10;99.90
50162;DHT22;36061;48.116;11.612;2022-10-28T08:38:38;16.30;99.90
50162;DHT22;36061;48.116;11.612;2022-10-28T08:49:39;16.80;99.90
50162;DHT22;36061;48.116;11.612;2022-10-28T08:55:10;17.00;99.90
50162;DHT22;36061;48.116;11.612;2022-10-28T08:57:50;17.10;99.90
50162;DHT22;36061;48.116;11.612;2022-10-28T09:00:25;17.10;99.90
50162;DHT22;36061;48.116;11.612;2022-10-28T09:03:11;17.20;99.90
50162;DHT22;36061;48.116;11.612;2022-10-28T09:05:41;17.20;99.90
50162;DHT22;36061;48.116;11.612;2022-10-28T09:08:44;17.30;99.90
50162;DHT22;36061;48.116;11.612;2022-10-28T09:13:58;17.40;99.90
50162;DHT22;36061;48.116;11.612;2022-10-28T09:19:23;17.40;99.90
50162;DHT22;36061;48.116;11.612;2022-10-28T09:24:54;17.50;99.90
50162;DHT22;36061;48.116;11.612;2022-10-28T09:35:22;17.60;99.90
50162;DHT22;36061;48.116;11.612;2022-10-28T09:38:03;17.60;99.90
50162;DHT22;36061;48.116;11.612;2022-10-28T09:40:33;17.60;99.90
50162;DHT22;36061;48.116;11.612;2022-10-28T09:45:43;17.50;99.90
50162;DHT22;36061;48.116;11.612;2022-10-28T09:50:38;17.50;99.90
50162;DHT22;36061;48.116;11.612;2022-10-28T09:53:13;17.60;99.90
50162;DHT22;36061;48.116;11.612;2022-10-28T09:55:40;17.70;99.90
50162;DHT22;36061;48.116;11.612;2022-10-28T09:58:06;17.80;99.90
50162;DHT22;36061;48.116;11.612;2022-10-28T10:00:34;17.90;99.90
50162;DHT22;36061;48.116;11.612;2022-10-28T10:03:01;18.00;99.90
50162;DHT22;36061;48.116;11.612;2022-10-28T10:05:28;18.10;99.90
50162;DHT22;36061;48.116;11.612;2022-10-28T10:08:02;18.10;99.90
50162;DHT22;36061;48.116;11.612;2022-10-28T10:13:15;18.20;99.90
50162;DHT22;36061;48.116;11.612;2022-10-28T10:15:45;18.20;99.90
50162;DHT22;36061;48.116;11.612;2022-10-28T10:18:21;18.30;99.90
50162;DHT22;36061;48.116;11.612;2022-10-28T10:20:53;18.40;99.90
50162;DHT22;36061;48.116;11.612;2022-10-28T10:23:22;18.40;99.90
50162;DHT22;36061;48.116;11.612;2022-10-28T10:26:10;18.50;99.90
50162;DHT22;36061;48.116;11.612;2022-10-28T10:28:41;18.70;99.90
50162;DHT22;36061;48.116;11.612;2022-10-28T10:31:19;18.80;99.90
50162;DHT22;36061;48.116;11.612;2022-10-28T10:33:52;18.90;99.90
50162;DHT22;36061;48.116;11.612;2022-10-28T10:36:20;19.00;99.90
50162;DHT22;36061;48.116;11.612;2022-10-28T10:38:54;19.00;99.90
50162;DHT22;36061;48.116;11.612;2022-10-28T10:41:38;19.00;99.90
50162;DHT22;36061;48.116;11.612;2022-10-28T10:47:30;19.10;99.90
50162;DHT22;36061;48.116;11.612;2022-10-28T10:49:31;19.10;99.90
50162;DHT22;36061;48.116;11.612;2022-10-28T10:52:03;19.20;99.90
50162;DHT22;36061;48.116;11.612;2022-10-28T10:54:33;19.20;99.90
50162;DHT22;36061;48.116;11.612;2022-10-28T10:57:20;19.30;99.90
50162;DHT22;36061;48.116;11.612;2022-10-28T10:59:47;19.40;99.90
50162;DHT22;36061;48.116;11.612;2022-10-28T11:02:32;19.40;99.90
50162;DHT22;36061;48.116;11.612;2022-10-28T11:05:08;19.50;99.90
50162;DHT22;36061;48.116;11.612;2022-10-28T11:07:38;19.60;99.90
50162;DHT22;36061;48.116;11.612;2022-10-28T11:10:21;19.70;99.90
50162;DHT22;36061;48.116;11.612;2022-10-28T11:12:53;19.80;99.90
50162;DHT22;36061;48.116;11.612;2022-10-28T11:15:27;19.80;99.90
50162;DHT22;36061;48.116;11.612;2022-10-28T11:18:16;19.90;99.90
50162;DHT22;36061;48.116;11.612;2022-10-28T11:24:12;19.80;99.90
50162;DHT22;36061;48.116;11.612;2022-10-28T11:26:47;19.80;99.90
50162;DHT22;36061;48.116;11.612;2022-10-28T11:29:16;19.80;99.90
50162;DHT22;36061;48.116;11.612;2022-10-28T11:40:18;20.00;99.90
50162;DHT22;36061;48.116;11.612;2022-10-28T11:45:58;20.10;99.90
50162;DHT22;36061;48.116;11.612;2022-10-28T11:54:03;20.50;99.90
50162;DHT22;36061;48.116;11.612;2022-10-28T11:56:38;20.60;99.90
50162;DHT22;36061;48.116;11.612;2022-10-28T12:04:43;20.70;99.90
50162;DHT22;36061;48.116;11.612;2022-10-28T12:10:05;20.80;99.90
50162;DHT22;36061;48.116;11.612;2022-10-28T12:15:32;20.90;99.90
50162;DHT22;36061;48.116;11.612;2022-10-28T12:23:02;21.10;99.90
50162;DHT22;36061;48.116;11.612;2022-10-28T12:25:32;21.20;99.90
50162;DHT22;36061;48.116;11.612;2022-10-28T12:28:26;21.20;99.90
50162;DHT22;36061;48.116;11.612;2022-10-28T12:30:55;21.30;99.90
50162;DHT22;36061;48.116;11.612;2022-10-28T12:33:33;21.30;99.90
50162;DHT22;36061;48.116;11.612;2022-10-28T12:38:39;21.40;99.90
50162;DHT22;36061;48.116;11.612;2022-10-28T12:41:42;21.50;99.90
50162;DHT22;36061;48.116;11.612;2022-10-28T12:44:15;21.70;99.90
50162;DHT22;36061;48.116;11.612;2022-10-28T12:46:52;21.70;99.90
50162;DHT22;36061;48.116;11.612;2022-10-28T12:49:34;21.80;99.90
50162;DHT22;36061;48.116;11.612;2022-10-28T12:52:18;21.80;99.90
50162;DHT22;36061;48.116;11.612;2022-10-28T12:54:53;21.90;99.90
50162;DHT22;36061;48.116;11.612;2022-10-28T12:57:21;21.90;99.90
50162;DHT22;36061;48.116;11.612;2022-10-28T12:59:58;21.90;99.90
50162;DHT22;36061;48.116;11.612;2022-10-28T13:02:37;22.00;99.90
50162;DHT22;36061;48.116;11.612;2022-10-28T13:05:04;22.00;99.90
50162;DHT22;36061;48.116;11.612;2022-10-28T13:08:15;22.00;99.90
50162;DHT22;36061;48.116;11.612;2022-10-28T13:18:47;22.20;99.90
50162;DHT22;36061;48.116;11.612;2022-10-28T13:24:35;22.10;99.90
50162;DHT22;36061;48.116;11.612;2022-10-28T13:27:02;22.00;99.90
50162;DHT22;36061;48.116;11.612;2022-10-28T13:29:32;21.90;99.90
50162;DHT22;36061;48.116;11.612;2022-10-28T13:31:59;21.80;99.90
50162;DHT22;36061;48.116;11.612;2022-10-28T13:34:34;21.80;99.90
50162;DHT22;36061;48.116;11.612;2022-10-28T13:37:04;21.80;99.90
50162;DHT22;36061;48.116;11.612;2022-10-28T13:39:43;21.80;99.90
50162;DHT22;36061;48.116;11.612;2022-10-28T13:44:55;21.80;99.90
50162;DHT22;36061;48.116;11.612;2022-10-28T13:47:26;21.90;99.90
50162;DHT22;36061;48.116;11.612;2022-10-28T13:52:40;21.80;99.90
50162;DHT22;36061;48.116;11.612;2022-10-28T13:57:42;21.80;99.90
50162;DHT22;36061;48.116;11.612;2022-10-28T14:03:00;21.70;99.90
50162;DHT22;36061;48.116;11.612;2022-10-28T14:08:04;21.60;99.90
50162;DHT22;36061;48.116;11.612;2022-10-28T14:10:34;21.60;99.90
50162;DHT22;36061;48.116;11.612;2022-10-28T14:13:05;21.50;99.90
50162;DHT22;36061;48.116;11.612;2022-10-28T14:15:37;21.40;99.90
50162;DHT22;36061;48.116;11.612;2022-10-28T14:18:04;21.30;99.90
50162;DHT22;36061;48.116;11.612;2022-10-28T14:20:53;21.30;99.90
50162;DHT22;36061;48.116;11.612;2022-10-28T14:47:14;21.00;99.90
50162;DHT22;36061;48.116;11.612;2022-10-28T14:50:00;21.00;99.90
50162;DHT22;36061;48.116;11.612;2022-10-28T14:52:29;20.90;99.90
50162;DHT22;36061;48.116;11.612;2022-10-28T14:54:58;20.90;99.90
50162;DHT22;36061;48.116;11.612;2022-10-28T14:57:27;20.80;99.90
50162;DHT22;36061;48.116;11.612;2022-10-28T14:59:53;20.80;99.90
50162;DHT22;36061;48.116;11.612;2022-10-28T15:02:26;20.80;99.90
50162;DHT22;36061;48.116;11.612;2022-10-28T15:07:36;20.70;99.90
50162;DHT22;36061;48.116;11.612;2022-10-28T15:10:16;20.60;99.90
50162;DHT22;36061;48.116;11.612;2022-10-28T15:12:44;20.60;99.90
50162;DHT22;36061;48.116;11.612;2022-10-28T15:15:23;20.50;99.90
50162;DHT22;36061;48.116;11.612;2022-10-28T15:17:49;20.50;99.90
50162;DHT22;36061;48.116;11.612;2022-10-28T15:20:19;20.40;99.90
50162;DHT22;36061;48.116;11.612;2022-10-28T15:22:45;20.30;99.90
50162;DHT22;36061;48.116;11.612;2022-10-28T15:25:15;20.20;99.90
50162;DHT22;36061;48.116;11.612;2022-10-28T15:27:50;20.20;99.90
50162;DHT22;36061;48.116;11.612;2022-10-28T15:30:24;20.10;99.90
50162;DHT22;36061;48.116;11.612;2022-10-28T15:32:54;20.00;99.90
50162;DHT22;36061;48.116;11.612;2022-10-28T15:37:58;19.90;99.90
50162;DHT22;36061;48.116;11.612;2022-10-28T15:40:32;19.80;99.90
50162;DHT22;36061;48.116;11.612;2022-10-28T15:43:03;19.70;99.90
50162;DHT22;36061;48.116;11.612;2022-10-28T15:45:32;19.70;99.90
50162;DHT22;36061;48.116;11.612;2022-10-28T15:48:00;19.60;99.90
50162;DHT22;36061;48.116;11.612;2022-10-28T15:53:20;19.50;99.90
50162;DHT22;36061;48.116;11.612;2022-10-28T15:58:46;19.30;99.90
50162;DHT22;36061;48.116;11.612;2022-10-28T16:03:59;19.10;99.90
50162;DHT22;36061;48.116;11.612;2022-10-28T16:06:28;19.00;99.90
50162;DHT22;36061;48.116;11.612;2022-10-28T16:11:36;18.90;99.90
50162;DHT22;36061;48.116;11.612;2022-10-28T16:14:38;18.80;99.90
50162;DHT22;36061;48.116;11.612;2022-10-28T16:20:29;18.70;99.90
50162;DHT22;36061;48.116;11.612;2022-10-28T16:22:33;18.60;99.90
50162;DHT22;36061;48.116;11.612;2022-10-28T16:24:59;18.50;99.90
50162;DHT22;36061;48.116;11.612;2022-10-28T16:27:28;18.50;99.90
50162;DHT22;36061;48.116;11.612;2022-10-28T16:29:55;18.40;99.90
50162;DHT22;36061;48.116;11.612;2022-10-28T16:32:30;18.30;99.90
50162;DHT22;36061;48.116;11.612;2022-10-28T16:34:57;18.30;99.90
50162;DHT22;36061;48.116;11.612;2022-10-28T16:37:28;18.20;99.90
50162;DHT22;36061;48.116;11.612;2022-10-28T16:39:55;18.20;99.90
50162;DHT22;36061;48.116;11.612;2022-10-28T16:42:23;18.10;99.90
50162;DHT22;36061;48.116;11.612;2022-10-28T16:44:49;18.00;99.90
50162;DHT22;36061;48.116;11.612;2022-10-28T16:47:17;18.00;99.90
50162;DHT22;36061;48.116;11.612;2022-10-28T16:49:43;18.00;99.90
50162;DHT22;36061;48.116;11.612;2022-10-28T16:52:15;18.00;99.90
50162;DHT22;36061;48.116;11.612;2022-10-28T16:54:42;17.90;99.90
50162;DHT22;36061;48.116;11.612;2022-10-28T16:57:08;17.90;99.90
50162;DHT22;36061;48.116;11.612;2022-10-28T16:59:34;17.90;99.90
50162;DHT22;36061;48.116;11.612;2022-10-28T17:01:59;17.90;99.90
50162;DHT22;36061;48.116;11.612;2022-10-28T17:04:25;17.80;99.90
50162;DHT22;36061;48.116;11.612;2022-10-28T17:06:51;17.80;99.90
50162;DHT22;36061;48.116;11.612;2022-10-28T17:09:16;17.80;99.90
50162;DHT22;36061;48.116;11.612;2022-10-28T17:11:42;17.70;99.90
50162;DHT22;36061;48.116;11.612;2022-10-28T17:14:08;17.70;99.90
50162;DHT22;36061;48.116;11.612;2022-10-28T17:16:34;17.60;99.90
50162;DHT22;36061;48.116;11.612;2022-10-28T17:19:00;17.60;99.90
50162;DHT22;36061;48.116;11.612;2022-10-28T17:21:26;17.60;99.90
50162;DHT22;36061;48.116;11.612;2022-10-28T17:23:52;17.50;99.90
50162;DHT22;36061;48.116;11.612;2022-10-28T17:26:18;17.50;99.90
50162;DHT22;36061;48.116;11.612;2022-10-28T17:28:44;17.40;99.90
50162;DHT22;36061;48.116;11.612;2022-10-28T17:31:09;17.40;99.90
50162;DHT22;36061;48.116;11.612;2022-10-28T17:33:35;17.30;99.90
50162;DHT22;36061;48.116;11.612;2022-10-28T17:36:05;17.30;99.90
50162;DHT22;36061;48.116;11.612;2022-10-28T17:38:33;17.30;99.90
50162;DHT22;36061;48.116;11.612;2022-10-28T17:40:59;17.20;99.90
50162;DHT22;36061;48.116;11.612;2022-10-28T17:43:25;17.20;99.90
50162;DHT22;36061;48.116;11.612;2022-10-28T17:45:51;17.10;99.90
50162;DHT22;36061;48.116;11.612;2022-10-28T17:48:17;17.10;99.90
50162;DHT22;36061;48.116;11.612;2022-10-28T17:50:43;17.10;99.90
50162;DHT22;36061;48.116;11.612;2022-10-28T17:53:10;17.00;99.90
50162;DHT22;36061;48.116;11.612;2022-10-28T17:55:35;17.00;99.90
50162;DHT22;36061;48.116;11.612;2022-10-28T17:58:01;16.90;99.90
50162;DHT22;36061;48.116;11.612;2022-10-28T18:00:27;16.80;99.90
50162;DHT22;36061;48.116;11.612;2022-10-28T18:02:56;16.80;99.90
50162;DHT22;36061;48.116;11.612;2022-10-28T18:05:21;16.80;99.90
50162;DHT22;36061;48.116;11.612;2022-10-28T18:07:47;16.80;99.90
50162;DHT22;36061;48.116;11.612;2022-10-28T18:10:13;16.70;99.90
50162;DHT22;36061;48.116;11.612;2022-10-28T18:12:40;16.70;99.90
50162;DHT22;36061;48.116;11.612;2022-10-28T18:15:06;16.70;99.90
50162;DHT22;36061;48.116;11.612;2022-10-28T18:17:34;16.60;99.90
50162;DHT22;36061;48.116;11.612;2022-10-28T18:19:59;16.60;99.90
50162;DHT22;36061;48.116;11.612;2022-10-28T18:22:26;16.60;99.90
50162;DHT22;36061;48.116;11.612;2022-10-28T18:24:52;16.60;99.90
50162;DHT22;36061;48.116;11.612;2022-10-28T18:27:19;16.60;99.90
50162;DHT22;36061;48.116;11.612;2022-10-28T18:29:45;16.60;99.90
50162;DHT22;36061;48.116;11.612;2022-10-28T18:32:11;16.50;99.90
50162;DHT22;36061;48.116;11.612;2022-10-28T18:34:36;16.60;99.90